Time;durP1;ratioP1;P1;durP2;ratioP2;P2;SDS_P1;SDS_P2;PMS_P1;PMS_P2;Temp;Humidity;BMP_temperature;BMP_pressure;BME280_temperature;BME280_humidity;BME280_pressure;Samples;Min_cycle;Max_cycle;Signal;HPM_P1;HPM_P2
2021/12/13 00:01:26;;;;;;;3.97;3.50;;;15.90;58.00;;;;;;5099189;28;20019;-40
2021/12/13 00:03:54;;;;;;;4.55;3.50;;;15.90;58.10;;;;;;5099689;28;20073;-37
2021/12/13 00:06:34;;;;;;;4.40;3.65;;;15.90;58.00;;;;;;5098838;28;20016;-42
2021/12/13 00:09:06;;;;;;;4.60;3.50;;;15.90;58.10;;;;;;5098740;28;20024;-40
2021/12/13 00:11:34;;;;;;;3.90;3.42;;;15.90;58.00;;;;;;5080631;28;20012;-42
2021/12/13 00:14:10;;;;;;;4.43;3.72;;;15.90;58.10;;;;;;5080772;28;20027;-39
2021/12/13 00:16:39;;;;;;;4.35;3.58;;;15.90;58.10;;;;;;5097879;28;20044;-42
2021/12/13 00:19:11;;;;;;;5.07;3.63;;;15.80;58.20;;;;;;5080319;28;20089;-39
2021/12/13 00:21:39;;;;;;;4.13;3.60;;;15.80;58.70;;;;;;5080437;28;20015;-41
2021/12/13 00:24:19;;;;;;;4.68;3.70;;;15.80;58.30;;;;;;5096716;28;20022;-38
2021/12/13 00:26:48;;;;;;;3.90;3.50;;;15.80;58.20;;;;;;5098158;28;20016;-40
2021/12/13 00:29:20;;;;;;;5.07;3.97;;;15.90;58.10;;;;;;5080934;28;20020;-40
2021/12/13 00:32:00;;;;;;;3.97;3.58;;;15.90;58.10;;;;;;5098403;28;20020;-39
2021/12/13 00:35:00;;;;;;;4.22;3.50;;;15.90;58.00;;;;;;5098052;28;20020;-38
2021/12/13 00:37:45;;;;;;;4.50;3.85;;;15.90;58.00;;;;;;5098090;28;20051;-37
2021/12/13 00:40:17;;;;;;;4.03;3.63;;;15.90;57.90;;;;;;5098918;28;20031;-41
2021/12/13 00:43:12;;;;;;;4.72;3.40;;;15.90;58.00;;;;;;5100535;28;20058;-38
2021/12/13 00:45:40;;;;;;;3.60;3.30;;;15.90;58.00;;;;;;5101018;28;20374;-40
2021/12/13 00:48:08;;;;;;;5.18;3.60;;;15.90;58.00;;;;;;5083222;28;20016;-37
2021/12/13 00:50:42;;;;;;;3.50;3.20;;;15.90;58.00;;;;;;5100637;28;20012;-42
2021/12/13 00:53:08;;;;;;;4.05;3.63;;;15.90;57.90;;;;;;5099822;28;20019;-40
2021/12/13 00:55:34;;;;;;;4.20;3.42;;;15.90;58.50;;;;;;5064538;28;20012;-39
2021/12/13 00:58:17;;;;;;;3.92;3.38;;;15.90;57.90;;;;;;5078097;28;20111;-38
2021/12/13 01:00:46;;;;;;;3.85;3.45;;;15.90;57.90;;;;;;5077562;28;20074;-38
2021/12/13 01:03:14;;;;;;;4.15;3.60;;;15.90;57.90;;;;;;5095072;28;20073;-38
2021/12/13 01:05:59;;;;;;;3.47;3.15;;;15.90;57.80;;;;;;5097204;28;20023;-38
2021/12/13 01:09:01;;;;;;;3.80;3.50;;;15.90;57.80;;;;;;5097157;28;20097;-40
2021/12/13 01:11:47;;;;;;;4.05;3.60;;;15.90;57.90;;;;;;5096874;28;20023;-38
2021/12/13 01:14:13;;;;;;;4.20;3.80;;;15.90;57.90;;;;;;5096590;28;20012;-38
2021/12/13 01:17:02;;;;;;;4.20;3.58;;;15.90;57.80;;;;;;5096754;28;20067;-44
2021/12/13 01:26:36;;;;;;;4.57;3.88;;;15.90;57.80;;;;;;5101333;28;20028;-38
2021/12/13 01:28:31;;;;;;;4.15;3.60;;;15.90;57.90;;;;;;5086566;28;20084;-38
2021/12/13 01:31:35;;;;;;;4.47;3.50;;;15.90;57.80;;;;;;5100488;28;20136;-40
2021/12/13 01:34:02;;;;;;;3.97;3.47;;;15.90;57.90;;;;;;4997667;28;20033;-40
2021/12/13 01:36:43;;;;;;;4.38;3.55;;;15.90;57.80;;;;;;4997371;28;20057;-42
2021/12/13 01:39:23;;;;;;;4.00;3.60;;;15.90;57.90;;;;;;4997015;28;20039;-40
2021/12/13 01:41:52;;;;;;;3.60;3.05;;;15.90;58.00;;;;;;4964880;28;20027;-39
2021/12/13 01:44:23;;;;;;;3.97;3.58;;;15.90;57.90;;;;;;4997576;28;20054;-39
2021/12/13 01:47:01;;;;;;;4.75;3.92;;;15.90;58.00;;;;;;4997098;28;20029;-39
2021/12/13 01:49:29;;;;;;;3.97;3.58;;;15.90;58.00;;;;;;4996193;28;20014;-39
2021/12/13 01:51:56;;;;;;;3.60;3.30;;;15.90;58.00;;;;;;4979612;28;20061;-40
2021/12/13 01:54:22;;;;;;;3.92;3.47;;;15.90;57.90;;;;;;4979753;28;20023;-39
2021/12/13 01:56:57;;;;;;;3.85;3.40;;;15.90;57.90;;;;;;4980135;28;20074;-38
2021/12/13 02:02:09;;;;;;;3.50;3.20;;;15.90;58.00;;;;;;4995655;28;20073;-38
2021/12/13 02:04:35;;;;;;;3.97;3.58;;;15.90;57.90;;;;;;4995762;28;20076;-39
2021/12/13 02:07:03;;;;;;;4.57;3.50;;;15.90;57.80;;;;;;4995448;28;20061;-38
2021/12/13 02:09:35;;;;;;;4.22;3.63;;;15.90;57.70;;;;;;4999941;28;20089;-38
2021/12/13 02:12:04;;;;;;;4.65;3.72;;;15.90;57.80;;;;;;5098169;28;20013;-40
2021/12/13 02:14:32;;;;;;;3.60;3.30;;;15.90;57.70;;;;;;5098310;28;20494;-40
2021/12/13 02:17:10;;;;;;;4.15;3.50;;;15.90;57.80;;;;;;5099138;28;20036;-39
2021/12/13 02:20:04;;;;;;;4.25;3.80;;;15.90;57.90;;;;;;5065532;28;20020;-40
2021/12/13 02:22:49;;;;;;;5.88;3.70;;;15.90;57.90;;;;;;5098970;28;20024;-38
2021/12/13 02:25:24;;;;;;;4.25;3.38;;;15.90;57.80;;;;;;5098398;28;20069;-39
2021/12/13 02:27:58;;;;;;;5.00;3.78;;;15.90;57.70;;;;;;5098131;28;20016;-39
2021/12/13 02:30:35;;;;;;;4.00;3.60;;;16.00;57.70;;;;;;5097526;28;20513;-41
2021/12/13 02:33:01;;;;;;;4.72;3.80;;;15.90;57.70;;;;;;5098019;28;20027;-38
2021/12/13 02:35:30;;;;;;;4.10;3.70;;;16.00;57.80;;;;;;5098149;28;20016;-39
2021/12/13 02:37:56;;;;;;;3.78;3.42;;;15.90;57.80;;;;;;5098443;28;20027;-39
2021/12/13 02:40:23;;;;;;;4.40;3.90;;;16.00;57.80;;;;;;5098792;28;20091;-39
2021/12/13 02:42:49;;;;;;;4.10;3.53;;;16.00;57.60;;;;;;5098514;28;20047;-39
2021/12/13 02:45:25;;;;;;;4.35;3.58;;;16.00;57.60;;;;;;5080626;28;20054;-40
2021/12/13 02:47:55;;;;;;;4.00;3.53;;;16.00;57.70;;;;;;5098326;28;20016;-38
2021/12/13 02:50:45;;;;;;;4.38;3.63;;;15.90;57.70;;;;;;5097391;28;20044;-40
2021/12/13 02:53:12;;;;;;;4.00;3.40;;;15.90;57.80;;;;;;5080671;28;20020;-39
2021/12/13 02:55:37;;;;;;;3.88;3.40;;;15.90;57.80;;;;;;5097175;28;20056;-38
2021/12/13 02:58:05;;;;;;;4.10;3.67;;;15.90;57.70;;;;;;5095821;28;20055;-40
2021/12/13 03:00:49;;;;;;;4.93;3.70;;;15.90;57.70;;;;;;5095968;28;20023;-38
2021/12/13 03:03:17;;;;;;;4.13;3.53;;;15.90;57.80;;;;;;5096380;28;20012;-38
2021/12/13 03:05:49;;;;;;;4.43;3.80;;;15.90;57.80;;;;;;5095939;28;20024;-40
2021/12/13 03:08:21;;;;;;;3.92;3.50;;;15.90;57.80;;;;;;5096129;28;20111;-41
2021/12/13 03:10:50;;;;;;;4.88;3.47;;;15.90;57.70;;;;;;5096054;28;20019;-39
2021/12/13 03:13:16;;;;;;;3.92;3.40;;;16.00;57.70;;;;;;5077451;28;20016;-38
2021/12/13 03:16:00;;;;;;;4.03;3.63;;;15.90;57.70;;;;;;5094925;28;20044;-37
2021/12/13 03:18:40;;;;;;;3.88;3.47;;;16.00;57.80;;;;;;5094788;28;20044;-37
2021/12/13 03:21:22;;;;;;;;;;;16.00;57.80;;;;;;5078772;28;20012;-38
2021/12/13 03:24:25;;;;;;;4.57;3.30;;;16.00;57.70;;;;;;5094390;28;19995;-38
2021/12/13 03:27:00;;;;;;;4.05;3.65;;;15.90;57.60;;;;;;5076873;28;20023;-38
2021/12/13 03:29:59;;;;;;;4.60;3.67;;;15.90;57.70;;;;;;5076509;28;20012;-38
2021/12/13 03:32:51;;;;;;;4.78;3.72;;;15.90;57.70;;;;;;5094428;28;20034;-38
2021/12/13 03:35:41;;;;;;;3.75;3.45;;;16.00;57.70;;;;;;5083940;28;20050;-38
2021/12/13 03:38:39;;;;;;;3.78;3.42;;;15.90;57.60;;;;;;5094725;28;20024;-37
2021/12/13 03:41:12;;;;;;;4.75;3.72;;;16.00;57.70;;;;;;5096383;28;20475;-40
2021/12/13 03:43:44;;;;;;;4.45;3.58;;;16.00;57.70;;;;;;5096325;28;20087;-39
2021/12/13 03:46:11;;;;;;;3.85;3.45;;;16.00;57.70;;;;;;5095146;28;20004;-39
2021/12/13 03:48:41;;;;;;;3.90;3.50;;;16.00;57.60;;;;;;5077640;28;20020;-38
2021/12/13 03:51:10;;;;;;;3.30;3.00;;;16.00;57.60;;;;;;5096081;28;20423;-44
2021/12/13 03:53:37;;;;;;;4.45;3.50;;;16.00;57.50;;;;;;5097054;28;20004;-39
2021/12/13 03:56:12;;;;;;;3.90;3.50;;;16.00;57.60;;;;;;5060537;28;20013;-40
2021/12/13 03:58:43;;;;;;;4.03;3.63;;;16.00;57.60;;;;;;5076364;28;20051;-39
2021/12/13 04:01:15;;;;;;;4.30;3.38;;;16.00;57.60;;;;;;5095468;28;20008;-39
2021/12/13 04:03:41;;;;;;;4.13;3.63;;;15.90;57.60;;;;;;5095817;28;20597;-39
2021/12/13 04:06:07;;;;;;;4.00;3.58;;;16.00;57.70;;;;;;5095571;28;20050;-39
2021/12/13 04:08:32;;;;;;;4.05;3.65;;;16.00;57.70;;;;;;5095223;28;20110;-41
2021/12/13 04:11:02;;;;;;;4.70;3.60;;;15.90;57.70;;;;;;5097108;28;20020;-39
2021/12/13 04:13:31;;;;;;;3.83;3.42;;;16.00;57.60;;;;;;5097499;28;20012;-39
2021/12/13 04:16:11;;;;;;;3.83;3.40;;;16.10;57.30;;;;;;5097336;28;20534;-41
2021/12/13 04:21:21;;;;;;;4.82;3.60;;;16.10;57.10;;;;;;5097851;28;20117;-39
2021/12/13 04:23:55;;;;;;;3.88;3.28;;;16.20;57.00;;;;;;5098676;28;20475;-42
2021/12/13 04:26:21;;;;;;;3.80;3.50;;;16.30;56.90;;;;;;5098823;28;20018;-39
2021/12/13 04:28:49;;;;;;;4.28;3.60;;;16.30;56.60;;;;;;5099335;28;20542;-42
2021/12/13 04:31:17;;;;;;;3.92;3.47;;;16.30;56.40;;;;;;5099243;28;20081;-39
2021/12/13 04:34:03;;;;;;;3.83;3.25;;;16.40;56.20;;;;;;5099376;28;20027;-39
2021/12/13 04:36:40;;;;;;;3.92;3.50;;;16.50;56.10;;;;;;5099610;28;20009;-40
2021/12/13 04:39:20;;;;;;;3.80;3.40;;;16.50;55.90;;;;;;5099871;28;20024;-42
2021/12/13 04:41:47;;;;;;;;;;;16.60;55.70;;;;;;5081901;28;20095;-39
2021/12/13 04:44:24;;;;;;;4.18;3.72;;;16.70;55.60;;;;;;5080645;28;19927;-40
2021/12/13 04:46:52;;;;;;;3.78;3.30;;;16.70;55.40;;;;;;5098305;28;20024;-39
2021/12/13 04:49:19;;;;;;;4.40;3.42;;;16.80;55.30;;;;;;5080069;28;20080;-38
2021/12/13 04:51:52;;;;;;;3.78;3.10;;;16.80;55.10;;;;;;5098868;28;20049;-39
2021/12/13 04:54:17;;;;;;;3.40;3.10;;;16.80;55.00;;;;;;5101698;28;20012;-39
2021/12/13 04:56:44;;;;;;;4.47;3.30;;;16.90;54.80;;;;;;5100684;28;20028;-41
2021/12/13 04:59:10;;;;;;;3.88;3.35;;;16.90;54.60;;;;;;5082867;28;20479;-38
2021/12/13 05:01:36;;;;;;;3.65;3.25;;;17.00;54.50;;;;;;5101644;28;20040;-39
2021/12/13 05:04:04;;;;;;;4.47;3.20;;;17.00;54.40;;;;;;5101833;28;20013;-38
2021/12/13 05:06:33;;;;;;;4.75;3.40;;;17.10;54.20;;;;;;5102999;28;20012;-38
2021/12/13 05:08:59;;;;;;;3.60;3.30;;;17.20;54.10;;;;;;5068524;28;20016;-38
2021/12/13 05:11:33;;;;;;;3.83;3.30;;;17.20;53.90;;;;;;5100090;28;20050;-38
2021/12/13 05:13:59;;;;;;;4.03;3.10;;;17.30;53.80;;;;;;5098690;28;20065;-38
2021/12/13 05:16:46;;;;;;;4.00;3.45;;;17.20;53.60;;;;;;5098819;28;20028;-38
2021/12/13 05:19:14;;;;;;;3.35;3.05;;;17.30;53.60;;;;;;5097913;28;20028;-38
2021/12/13 05:21:48;;;;;;;3.55;3.13;;;17.30;53.40;;;;;;5098545;28;20031;-38
2021/12/13 05:24:26;;;;;;;4.10;3.42;;;17.40;53.30;;;;;;5099168;28;20039;-38
2021/12/13 05:27:08;;;;;;;3.35;3.05;;;17.40;53.10;;;;;;5099234;28;20462;-40
2021/12/13 05:29:40;;;;;;;4.45;3.78;;;17.50;53.00;;;;;;5098856;28;20061;-38
2021/12/13 05:32:19;;;;;;;3.97;3.20;;;17.60;52.90;;;;;;5098853;28;20018;-38
2021/12/13 05:34:48;;;;;;;3.70;3.30;;;17.60;52.70;;;;;;5080827;28;20020;-38
2021/12/13 05:37:14;;;;;;;3.60;3.30;;;17.70;52.60;;;;;;5098802;28;20016;-38
2021/12/13 05:39:58;;;;;;;5.15;3.30;;;17.70;52.50;;;;;;5099302;28;20032;-38
2021/12/13 05:43:00;;;;;;;3.40;3.10;;;17.70;52.30;;;;;;5101108;28;20016;-42
2021/12/13 05:45:39;;;;;;;3.60;3.03;;;17.70;52.30;;;;;;5086595;28;20148;-40
2021/12/13 05:48:23;;;;;;;3.60;3.00;;;17.80;52.20;;;;;;5101572;28;20052;-42
2021/12/13 05:50:53;;;;;;;3.50;3.00;;;17.80;52.00;;;;;;5102077;28;20024;-38
2021/12/13 05:53:22;;;;;;;3.38;2.90;;;17.90;52.10;;;;;;5101770;28;20065;-39
2021/12/13 05:56:02;;;;;;;3.53;3.13;;;17.90;51.90;;;;;;5101816;28;20016;-38
2021/12/13 05:58:53;;;;;;;3.42;3.13;;;17.90;51.80;;;;;;5101871;28;20028;-40
2021/12/13 06:01:40;;;;;;;3.65;3.30;;;17.90;51.70;;;;;;5101776;28;20027;-39
2021/12/13 06:04:06;;;;;;;3.13;2.83;;;17.90;51.60;;;;;;5083948;28;20023;-39
2021/12/13 06:06:34;;;;;;;3.42;3.00;;;18.00;51.60;;;;;;5101871;28;20133;-38
2021/12/13 06:09:01;;;;;;;3.55;3.20;;;18.00;51.60;;;;;;5101026;28;20020;-39
2021/12/13 06:11:33;;;;;;;4.25;3.67;;;18.00;51.40;;;;;;5083437;28;20016;-41
2021/12/13 06:14:03;;;;;;;3.40;3.10;;;18.10;51.40;;;;;;5102461;28;20067;-40
2021/12/13 06:16:35;;;;;;;3.47;3.10;;;18.00;51.30;;;;;;5102074;28;20057;-38
2021/12/13 06:19:21;;;;;;;3.20;2.90;;;18.10;51.20;;;;;;5101554;28;20103;-38
2021/12/13 06:22:00;;;;;;;3.10;2.80;;;18.10;51.10;;;;;;5101779;28;20016;-40
2021/12/13 06:24:29;;;;;;;2.80;2.60;;;18.10;51.20;;;;;;5102548;28;20042;-40
2021/12/13 06:27:16;;;;;;;4.70;3.25;;;18.20;51.00;;;;;;5083277;28;20032;-39
2021/12/13 06:29:46;;;;;;;3.42;3.13;;;18.20;51.10;;;;;;5101680;28;20012;-39
2021/12/13 06:32:35;;;;;;;3.55;3.20;;;18.20;51.00;;;;;;5102177;28;20066;-39
2021/12/13 06:35:30;;;;;;;3.75;3.00;;;18.20;50.90;;;;;;5102814;28;20043;-39
2021/12/13 06:37:58;;;;;;;3.17;2.88;;;18.30;50.90;;;;;;5102276;28;20032;-38
2021/12/13 06:40:28;;;;;;;3.30;2.80;;;18.30;50.90;;;;;;5102643;28;20012;-41
2021/12/13 06:42:55;;;;;;;3.33;2.90;;;18.20;50.90;;;;;;5099852;28;20008;-39
2021/12/13 06:45:35;;;;;;;2.85;2.55;;;18.30;50.80;;;;;;5099389;28;20462;-38
2021/12/13 06:48:03;;;;;;;;;;;18.30;50.80;;;;;;5100380;28;20220;-37
2021/12/13 06:50:33;;;;;;;3.40;3.10;;;18.30;50.70;;;;;;5080879;28;20041;-37
2021/12/13 06:53:15;;;;;;;3.55;2.90;;;18.30;50.60;;;;;;5098366;28;20012;-38
2021/12/13 06:55:41;;;;;;;3.28;2.90;;;18.30;50.70;;;;;;5080834;28;20030;-37
2021/12/13 06:58:23;;;;;;;3.10;2.80;;;18.40;50.60;;;;;;5097025;28;20020;-37
2021/12/13 07:00:52;;;;;;;4.78;3.10;;;18.40;50.50;;;;;;5097115;28;20016;-37
2021/12/13 07:03:26;;;;;;;3.10;2.80;;;18.40;50.40;;;;;;5077460;28;20020;-37
2021/12/13 07:05:54;;;;;;;3.15;2.85;;;18.40;50.40;;;;;;5062329;28;20074;-37
2021/12/13 07:08:21;;;;;;;3.72;3.03;;;18.40;50.40;;;;;;5078224;28;20024;-37
2021/12/13 07:10:55;;;;;;;3.25;2.95;;;18.40;50.30;;;;;;5078256;28;20042;-37
2021/12/13 07:13:36;;;;;;;3.00;2.70;;;18.50;50.40;;;;;;5095352;28;20055;-37
2021/12/13 07:16:11;;;;;;;3.38;3.00;;;18.50;50.30;;;;;;5093260;28;20053;-37
2021/12/13 07:18:48;;;;;;;2.90;2.65;;;18.50;50.20;;;;;;5093046;28;20064;-37
2021/12/13 07:21:29;;;;;;;3.42;3.08;;;18.50;50.30;;;;;;5091295;28;20019;-36
2021/12/13 07:24:09;;;;;;;2.97;2.60;;;18.50;50.20;;;;;;5076541;28;20111;-37
2021/12/13 07:26:40;;;;;;;3.30;2.97;;;18.50;50.20;;;;;;5095376;28;20016;-38
2021/12/13 07:29:18;;;;;;;2.95;2.63;;;18.50;50.20;;;;;;5077312;28;20027;-38
2021/12/13 07:31:44;;;;;;;3.05;2.45;;;18.50;50.10;;;;;;5094669;28;20070;-37
2021/12/13 07:34:16;;;;;;;2.63;2.42;;;18.60;50.20;;;;;;5095061;28;20077;-37
2021/12/13 07:36:42;;;;;;;4.57;2.90;;;18.50;50.10;;;;;;5077443;28;20038;-37
2021/12/13 07:39:14;;;;;;;3.75;2.92;;;18.60;50.20;;;;;;5076993;28;20099;-39
2021/12/13 07:41:52;;;;;;;3.40;2.80;;;18.60;50.10;;;;;;5078206;28;20008;-39
2021/12/13 07:44:38;;;;;;;4.30;3.30;;;18.60;50.20;;;;;;5095101;28;20043;-36
2021/12/13 07:47:19;;;;;;;4.22;2.85;;;18.60;50.20;;;;;;5094380;28;20474;-38
2021/12/13 07:49:52;;;;;;;3.50;3.20;;;18.60;50.30;;;;;;5094967;28;20032;-38
2021/12/13 07:52:38;;;;;;;4.35;2.95;;;18.60;50.80;;;;;;5094572;28;20019;-39
2021/12/13 07:55:25;;;;;;;3.30;2.90;;;18.60;50.20;;;;;;5094657;28;20027;-37
2021/12/13 07:57:51;;;;;;;3.13;2.83;;;18.70;50.30;;;;;;5075529;28;20020;-37
2021/12/13 08:00:20;;;;;;;3.50;3.00;;;18.70;50.20;;;;;;5077031;28;20035;-38
2021/12/13 08:02:57;;;;;;;4.43;3.20;;;18.70;50.20;;;;;;5095594;28;20063;-36
2021/12/13 08:05:29;;;;;;;3.55;2.80;;;18.70;50.30;;;;;;5094409;28;20020;-36
2021/12/13 08:07:59;;;;;;;3.00;2.70;;;18.70;50.30;;;;;;5076481;28;20093;-37
2021/12/13 08:10:30;;;;;;;3.28;2.80;;;18.70;50.20;;;;;;5094556;28;20023;-37
2021/12/13 08:13:06;;;;;;;4.22;2.90;;;18.70;50.20;;;;;;5075594;28;20123;-37
2021/12/13 08:15:59;;;;;;;3.50;2.90;;;18.70;50.20;;;;;;5093723;28;20027;-37
2021/12/13 08:18:34;;;;;;;3.22;2.67;;;18.80;50.20;;;;;;5078565;28;20044;-37
2021/12/13 08:21:08;;;;;;;3.05;2.75;;;18.70;50.20;;;;;;5094971;28;20031;-46
2021/12/13 08:23:43;;;;;;;4.00;2.85;;;18.80;50.30;;;;;;5095031;28;20202;-39
2021/12/13 08:26:12;;;;;;;4.05;3.15;;;18.80;50.20;;;;;;5077568;28;20016;-38
2021/12/13 08:28:46;;;;;;;4.43;3.20;;;18.80;50.20;;;;;;5081176;28;20031;-38
2021/12/13 08:31:20;;;;;;;4.40;3.25;;;18.80;50.20;;;;;;5099238;28;20024;-37
2021/12/13 08:33:54;;;;;;;3.47;2.92;;;18.80;50.20;;;;;;5099732;28;20020;-39
2021/12/13 08:36:36;;;;;;;3.78;3.10;;;18.80;50.10;;;;;;5081363;28;20506;-40
2021/12/13 08:39:28;;;;;;;3.78;3.13;;;18.80;50.10;;;;;;5100087;28;20046;-38
2021/12/13 08:41:57;;;;;;;3.17;2.80;;;18.80;50.10;;;;;;5095128;28;20028;-41
2021/12/13 08:44:34;;;;;;;3.85;3.03;;;18.80;50.10;;;;;;5081996;28;20043;-38
2021/12/13 08:47:16;;;;;;;4.70;2.90;;;18.80;50.00;;;;;;5099330;28;20398;-38
2021/12/13 08:49:51;;;;;;;3.20;2.80;;;18.90;50.00;;;;;;5099104;28;20024;-38
2021/12/13 08:52:33;;;;;;;5.10;3.20;;;18.90;50.00;;;;;;5082870;28;20141;-39
2021/12/13 08:55:10;;;;;;;3.97;3.20;;;18.90;49.90;;;;;;5100132;28;20016;-37
2021/12/13 08:57:43;;;;;;;3.92;3.03;;;18.90;49.90;;;;;;5099496;28;20357;-38
2021/12/13 09:00:13;;;;;;;3.78;3.00;;;18.90;49.90;;;;;;5101611;28;20000;-39
2021/12/13 09:02:46;;;;;;;4.15;2.90;;;18.90;49.90;;;;;;5098774;28;20133;-43
2021/12/13 09:05:18;;;;;;;3.75;2.90;;;18.90;49.80;;;;;;5078672;28;20478;-39
2021/12/13 09:07:59;;;;;;;3.70;3.30;;;18.90;49.80;;;;;;5080612;28;20099;-38
2021/12/13 09:11:03;;;;;;;3.40;2.90;;;18.90;49.90;;;;;;5098315;28;20115;-38
2021/12/13 09:13:46;;;;;;;3.97;3.22;;;18.90;49.80;;;;;;5093542;28;20043;-45
2021/12/13 09:16:12;;;;;;;3.50;2.90;;;18.90;49.80;;;;;;5080607;28;20427;-38
2021/12/13 09:18:38;;;;;;;3.58;2.97;;;18.90;49.80;;;;;;5098759;28;20040;-40
2021/12/13 09:21:05;;;;;;;3.90;3.13;;;19.00;49.90;;;;;;5082490;28;20000;-39
2021/12/13 09:23:46;;;;;;;3.30;2.92;;;18.90;49.80;;;;;;5064249;28;20019;-38
2021/12/13 09:26:19;;;;;;;5.30;2.92;;;19.00;49.90;;;;;;5098675;28;20000;-40
2021/12/13 09:28:46;;;;;;;3.75;3.00;;;19.00;49.80;;;;;;5080542;28;20056;-38
2021/12/13 09:31:18;;;;;;;4.28;2.88;;;19.00;49.70;;;;;;5098436;28;20028;-39
2021/12/13 09:33:47;;;;;;;4.25;3.20;;;19.00;49.70;;;;;;5080402;28;20024;-38
2021/12/13 09:36:20;;;;;;;3.60;2.85;;;19.10;49.70;;;;;;5098407;28;20019;-38
2021/12/13 09:38:51;;;;;;;5.85;2.97;;;19.10;49.60;;;;;;5096326;28;20081;-38
2021/12/13 09:41:23;;;;;;;4.22;3.10;;;19.10;49.60;;;;;;5097330;28;20046;-38
2021/12/13 09:44:12;;;;;;;3.92;3.00;;;19.10;49.60;;;;;;5097906;28;20463;-38
2021/12/13 09:46:56;;;;;;;5.90;3.25;;;19.10;49.50;;;;;;5086310;28;20031;-36
2021/12/13 09:49:33;;;;;;;3.75;2.88;;;19.10;49.50;;;;;;5098068;28;20020;-38
2021/12/13 09:52:13;;;;;;;4.07;3.10;;;19.10;49.50;;;;;;5097924;28;20028;-36
2021/12/13 09:54:49;;;;;;;5.13;3.35;;;19.10;49.50;;;;;;5097123;28;20075;-39
2021/12/13 09:57:18;;;;;;;3.88;2.70;;;19.10;49.50;;;;;;5098445;28;20072;-39
2021/12/13 09:59:49;;;;;;;4.45;3.40;;;19.10;49.50;;;;;;5097732;28;20015;-38
2021/12/13 10:02:22;;;;;;;3.47;2.78;;;19.10;49.40;;;;;;5096723;28;20030;-44
2021/12/13 10:04:49;;;;;;;3.88;3.03;;;19.20;49.40;;;;;;5097352;28;20012;-40
2021/12/13 10:07:19;;;;;;;4.45;3.10;;;19.20;49.30;;;;;;5097406;28;20095;-40
2021/12/13 10:09:49;;;;;;;;;;;19.20;49.20;;;;;;5079422;28;20042;-38
2021/12/13 10:12:23;;;;;;;5.78;3.03;;;19.20;49.20;;;;;;5097313;28;19901;-40
2021/12/13 10:15:02;;;;;;;3.53;2.80;;;19.20;49.20;;;;;;5096836;28;20004;-40
2021/12/13 10:17:33;;;;;;;6.03;3.03;;;19.20;49.20;;;;;;5097323;28;20040;-40
2021/12/13 10:20:01;;;;;;;3.63;3.20;;;19.20;49.70;;;;;;5096784;28;20154;-38
2021/12/13 10:22:28;;;;;;;4.45;3.03;;;19.20;49.10;;;;;;5096627;28;20091;-38
2021/12/13 10:24:56;;;;;;;4.20;2.83;;;19.20;49.10;;;;;;5061879;28;20123;-38
2021/12/13 10:27:22;;;;;;;3.20;2.90;;;19.30;49.10;;;;;;5097429;28;20020;-38
2021/12/13 10:29:53;;;;;;;4.38;3.00;;;19.30;49.10;;;;;;5062903;28;20101;-38
2021/12/13 10:32:25;;;;;;;5.25;3.17;;;19.30;49.10;;;;;;5096503;28;20016;-38
2021/12/13 10:34:54;;;;;;;3.90;3.00;;;19.30;49.00;;;;;;5097457;28;20018;-38
2021/12/13 10:37:41;;;;;;;3.58;2.90;;;19.30;49.00;;;;;;5063383;28;20149;-37
2021/12/13 10:40:22;;;;;;;3.83;3.05;;;19.30;48.90;;;;;;5077854;28;20024;-36
2021/12/13 10:42:56;;;;;;;9.90;3.60;;;19.30;48.90;;;;;;5097664;28;20042;-40
2021/12/13 10:45:31;;;;;;;3.78;3.03;;;19.30;48.90;;;;;;5080011;28;20090;-39
2021/12/13 10:47:59;;;;;;;3.90;2.80;;;19.30;48.90;;;;;;5097635;28;20016;-37
2021/12/13 10:50:42;;;;;;;4.20;2.92;;;19.30;48.80;;;;;;5077882;28;20023;-37
2021/12/13 10:53:09;;;;;;;5.85;2.88;;;19.30;48.80;;;;;;5078169;28;20077;-40
2021/12/13 10:55:44;;;;;;;4.03;3.08;;;19.30;48.80;;;;;;5096403;28;20023;-37
2021/12/13 10:58:13;;;;;;;4.30;3.05;;;19.30;48.80;;;;;;5078094;28;20028;-37
2021/12/13 11:00:43;;;;;;;4.27;3.20;;;19.30;48.80;;;;;;5078348;28;20024;-38
2021/12/13 11:03:12;;;;;;;4.03;3.00;;;19.30;48.70;;;;;;5078672;28;20266;-38
2021/12/13 11:05:38;;;;;;;3.80;2.72;;;19.30;48.60;;;;;;5096102;28;20084;-36
2021/12/13 11:08:05;;;;;;;4.00;2.78;;;19.40;48.60;;;;;;5078806;28;20141;-41
2021/12/13 11:10:36;;;;;;;3.72;2.85;;;19.40;48.60;;;;;;5078036;28;20146;-36
2021/12/13 11:13:02;;;;;;;4.32;3.22;;;19.40;48.60;;;;;;5096385;28;20035;-36
2021/12/13 11:15:31;;;;;;;3.80;3.30;;;19.40;48.50;;;;;;5095571;28;20024;-35
2021/12/13 11:17:58;;;;;;;;;;;19.40;48.50;;;;;;5095182;28;20032;-36
2021/12/13 11:20:32;;;;;;;4.90;2.90;;;19.40;48.40;;;;;;5096328;28;20007;-38
2021/12/13 11:22:58;;;;;;;4.50;2.75;;;19.40;48.40;;;;;;5095599;28;20012;-39
2021/12/13 11:25:28;;;;;;;3.80;2.80;;;19.50;48.40;;;;;;5077917;28;20390;-38
2021/12/13 11:27:54;;;;;;;;;;;19.40;48.30;;;;;;5099462;28;20020;-36
2021/12/13 11:30:26;;;;;;;3.95;2.70;;;19.40;48.20;;;;;;5099073;28;19900;-38
2021/12/13 11:32:58;;;;;;;2.80;2.38;;;19.40;48.30;;;;;;5063180;28;20012;-38
2021/12/13 11:36:05;;;;;;;4.20;2.65;;;19.40;48.30;;;;;;5096595;28;20024;-35
2021/12/13 11:39:01;;;;;;;4.00;2.70;;;19.40;48.30;;;;;;5095546;28;20551;-38
2021/12/13 11:41:56;;;;;;;3.78;2.80;;;19.50;48.30;;;;;;5076448;28;20019;-39
2021/12/13 11:44:48;;;;;;;3.83;2.45;;;19.40;48.30;;;;;;5093720;28;20433;-39
2021/12/13 11:47:29;;;;;;;4.00;2.85;;;19.50;48.30;;;;;;5093581;28;20020;-40
2021/12/13 11:50:13;;;;;;;4.53;2.45;;;19.50;48.20;;;;;;5093946;28;20399;-39
2021/12/13 11:53:18;;;;;;;3.50;2.60;;;19.50;48.10;;;;;;5093933;28;20028;-37
2021/12/13 11:56:08;;;;;;;2.70;2.30;;;19.50;48.10;;;;;;5093856;28;20024;-37
2021/12/13 11:58:34;;;;;;;;;;;19.50;48.10;;;;;;5093864;28;20028;-37
2021/12/13 12:01:24;;;;;;;4.13;2.70;;;19.50;48.00;;;;;;5093404;28;19900;-38
2021/12/13 12:04:07;;;;;;;4.25;2.75;;;19.50;48.00;;;;;;5093440;28;20066;-38
2021/12/13 12:07:11;;;;;;;3.30;2.60;;;19.50;47.90;;;;;;5093332;28;20024;-38
2021/12/13 12:09:54;;;;;;;4.63;2.70;;;19.50;47.90;;;;;;5093231;28;20031;-38
2021/12/13 12:13:15;;;;;;;5.68;3.00;;;19.60;48.00;;;;;;5093269;28;20065;-38
2021/12/13 12:15:42;;;;;;;4.07;2.88;;;19.60;48.00;;;;;;4991604;28;20053;-39
2021/12/13 12:18:12;;;;;;;3.00;2.42;;;19.50;47.90;;;;;;4991304;28;20118;-38
2021/12/13 12:20:43;;;;;;;4.15;2.45;;;19.60;47.80;;;;;;4975406;28;20033;-38
2021/12/13 12:23:30;;;;;;;3.95;2.53;;;19.60;47.80;;;;;;4991190;28;20023;-37
2021/12/13 12:25:57;;;;;;;3.97;2.58;;;19.60;47.80;;;;;;4991108;28;20023;-36
2021/12/13 12:28:23;;;;;;;4.05;2.45;;;19.60;47.80;;;;;;4991677;28;20019;-37
2021/12/13 12:30:51;;;;;;;3.55;2.53;;;19.60;47.70;;;;;;4975583;28;20125;-36
2021/12/13 12:33:28;;;;;;;4.28;2.50;;;19.60;47.70;;;;;;4991745;28;20029;-37
2021/12/13 12:35:55;;;;;;;3.55;2.38;;;19.60;47.70;;;;;;4991554;28;20046;-37
2021/12/13 12:38:34;;;;;;;3.53;2.40;;;19.60;47.60;;;;;;4975581;28;20034;-37
2021/12/13 12:41:06;;;;;;;3.75;2.20;;;19.70;47.60;;;;;;4991343;28;20035;-37
2021/12/13 12:43:36;;;;;;;5.97;2.58;;;19.70;47.50;;;;;;4992324;28;20105;-38
2021/12/13 12:46:06;;;;;;;3.50;2.40;;;19.70;47.50;;;;;;4991457;28;20019;-39
2021/12/13 12:48:32;;;;;;;;;;;19.70;47.50;;;;;;4996755;28;20034;-36
2021/12/13 12:51:18;;;;;;;3.47;2.45;;;19.70;47.40;;;;;;5092629;28;19900;-38
2021/12/13 12:53:50;;;;;;;3.97;2.80;;;19.70;47.40;;;;;;5061078;28;20035;-38
2021/12/13 12:56:28;;;;;;;3.83;2.30;;;19.70;47.40;;;;;;5074967;28;20079;-39
2021/12/13 12:59:02;;;;;;;4.45;2.80;;;19.70;47.40;;;;;;5091730;28;20032;-38
2021/12/13 13:01:27;;;;;;;;;;;19.70;47.40;;;;;;5093159;28;20017;-36
2021/12/13 13:04:03;;;;;;;4.18;3.08;;;19.70;47.40;;;;;;5093107;28;19907;-38
2021/12/13 13:06:30;;;;;;;6.10;3.50;;;19.70;47.30;;;;;;5076343;28;20370;-38
2021/12/13 13:08:58;;;;;;;6.43;4.00;;;19.70;47.40;;;;;;5074555;28;20023;-38
2021/12/13 13:11:29;;;;;;;5.22;3.47;;;19.70;47.30;;;;;;5092576;28;20020;-37
2021/12/13 13:14:16;;;;;;;6.75;3.58;;;19.70;47.30;;;;;;5075935;28;20039;-37
2021/12/13 13:16:49;;;;;;;5.28;3.58;;;19.70;47.30;;;;;;5077867;28;20020;-37
2021/12/13 13:19:28;;;;;;;6.28;3.92;;;19.80;47.30;;;;;;5078481;28;20065;-37
2021/12/13 13:21:55;;;;;;;5.50;3.92;;;19.80;47.30;;;;;;5096095;28;20103;-37
2021/12/13 13:24:21;;;;;;;5.85;4.00;;;19.80;47.30;;;;;;5078147;28;20015;-37
2021/12/13 13:26:47;;;;;;;5.80;3.92;;;19.80;47.30;;;;;;5077988;28;20020;-37
2021/12/13 13:29:15;;;;;;;6.40;4.20;;;19.80;47.30;;;;;;5077485;28;20386;-37
2021/12/13 13:31:53;;;;;;;6.03;3.70;;;19.80;47.30;;;;;;5096079;28;20044;-37
2021/12/13 13:34:22;;;;;;;5.75;3.97;;;19.80;47.20;;;;;;5096195;28;20016;-38
2021/12/13 13:37:02;;;;;;;7.43;3.80;;;19.80;47.20;;;;;;5095670;28;20458;-37
2021/12/13 13:40:02;;;;;;;7.25;3.85;;;19.80;47.20;;;;;;5095759;28;20059;-37